createdAt,value
2017-06-23T00:01:36.627Z,99.90
2017-06-23T00:04:04.134Z,99.90
2017-06-23T00:06:31.656Z,99.90
2017-06-23T00:08:59.150Z,99.90
2017-06-23T00:11:27.398Z,99.90
2017-06-23T00:13:54.920Z,99.90
2017-06-23T00:16:22.411Z,99.90
2017-06-23T00:18:49.906Z,99.90
2017-06-23T00:21:17.426Z,99.90
2017-06-23T00:23:45.041Z,99.90
2017-06-23T00:26:12.522Z,99.90
2017-06-23T00:28:40.079Z,99.90
2017-06-23T00:31:07.558Z,99.20
2017-06-23T00:33:35.062Z,98.60
2017-06-23T00:36:02.609Z,99.90
2017-06-23T00:38:30.918Z,99.90
2017-06-23T00:40:58.464Z,99.90
2017-06-23T00:43:26.023Z,99.90
2017-06-23T00:45:53.536Z,99.90
2017-06-23T00:48:21.142Z,99.60
2017-06-23T00:50:48.668Z,99.70
2017-06-23T00:53:16.163Z,99.90
2017-06-23T00:55:43.661Z,99.00
2017-06-23T00:58:11.299Z,99.80
2017-06-23T01:00:38.805Z,99.70
2017-06-23T01:03:06.333Z,99.00
2017-06-23T01:05:33.861Z,98.40
2017-06-23T01:08:01.376Z,98.50
2017-06-23T01:10:28.864Z,98.60
2017-06-23T01:12:57.152Z,98.30
2017-06-23T01:15:24.649Z,98.30
2017-06-23T01:17:52.155Z,97.80
2017-06-23T01:20:20.463Z,96.60
2017-06-23T01:22:47.983Z,96.60
2017-06-23T01:25:16.285Z,95.60
2017-06-23T01:27:43.809Z,95.50
2017-06-23T01:30:11.301Z,95.40
2017-06-23T01:32:38.790Z,95.50
2017-06-23T01:35:06.334Z,95.80
2017-06-23T01:37:33.823Z,96.20
2017-06-23T01:40:01.304Z,96.20
2017-06-23T01:42:29.198Z,96.20
2017-06-23T01:44:56.691Z,96.30
2017-06-23T01:47:24.185Z,96.50
2017-06-23T01:49:51.789Z,95.30
2017-06-23T01:52:19.346Z,95.40
2017-06-23T01:54:46.826Z,95.80
2017-06-23T01:57:14.376Z,96.10
2017-06-23T01:59:41.936Z,94.70
2017-06-23T02:02:09.416Z,95.10
2017-06-23T02:04:37.036Z,94.50
2017-06-23T02:07:04.557Z,96.10
2017-06-23T02:09:32.042Z,94.40
2017-06-23T02:12:00.435Z,94.90
2017-06-23T02:14:27.948Z,94.90
2017-06-23T02:16:55.436Z,95.60
2017-06-23T02:19:23.707Z,94.80
2017-06-23T02:21:51.985Z,94.30
2017-06-23T02:24:20.260Z,94.10
2017-06-23T02:26:47.784Z,94.00
2017-06-23T02:29:15.271Z,93.70
2017-06-23T02:31:43.524Z,94.40
2017-06-23T02:34:11.053Z,94.00
2017-06-23T02:36:38.542Z,94.00
2017-06-23T02:39:06.035Z,93.90
2017-06-23T02:41:34.338Z,93.60
2017-06-23T02:44:01.831Z,93.40
2017-06-23T02:46:29.319Z,93.20
2017-06-23T02:48:56.991Z,93.00
2017-06-23T02:51:25.258Z,92.90
2017-06-23T02:53:52.738Z,92.80
2017-06-23T02:56:21.022Z,92.30
2017-06-23T02:58:48.597Z,92.30
2017-06-23T03:01:16.098Z,92.70
2017-06-23T03:03:43.599Z,92.80
2017-06-23T03:06:11.126Z,93.40
2017-06-23T03:08:38.623Z,93.30
2017-06-23T03:13:40.103Z,93.00
2017-06-23T03:16:07.621Z,92.40
2017-06-23T03:18:35.921Z,91.30
2017-06-23T03:21:03.423Z,91.30
2017-06-23T03:23:30.953Z,90.90
2017-06-23T03:25:58.436Z,91.50
2017-06-23T03:28:25.945Z,90.40
2017-06-23T03:30:54.766Z,90.70
2017-06-23T03:33:22.265Z,90.60
2017-06-23T03:35:49.809Z,91.30
2017-06-23T03:38:17.335Z,89.80
2017-06-23T03:40:44.833Z,90.10
2017-06-23T03:43:12.342Z,89.30
2017-06-23T03:45:39.864Z,89.20
2017-06-23T03:48:07.370Z,89.60
2017-06-23T03:50:34.867Z,89.70
2017-06-23T03:53:02.395Z,90.10
2017-06-23T03:55:29.891Z,89.60
2017-06-23T03:57:57.406Z,90.60
2017-06-23T04:00:24.930Z,88.20
2017-06-23T04:02:53.283Z,89.00
2017-06-23T04:05:20.820Z,89.00
2017-06-23T04:07:48.336Z,89.80
2017-06-23T04:10:16.610Z,88.40
2017-06-23T04:12:44.872Z,88.90
2017-06-23T04:15:12.401Z,88.90
2017-06-23T04:17:39.906Z,88.80
2017-06-23T04:20:08.216Z,88.70
2017-06-23T04:22:35.741Z,88.60
2017-06-23T04:25:04.024Z,87.90
2017-06-23T04:27:32.299Z,87.60
2017-06-23T04:30:00.693Z,87.50
2017-06-23T04:32:28.183Z,87.40
2017-06-23T04:34:55.667Z,87.60
2017-06-23T04:37:23.289Z,87.30
2017-06-23T04:39:50.801Z,87.40
2017-06-23T04:42:19.126Z,87.20
2017-06-23T04:44:46.670Z,87.10
2017-06-23T04:47:14.185Z,87.60
2017-06-23T04:49:41.716Z,88.00
2017-06-23T04:52:09.273Z,87.30
2017-06-23T04:54:36.778Z,88.30
2017-06-23T04:57:05.067Z,87.40
2017-06-23T04:59:33.401Z,87.00
2017-06-23T05:02:00.915Z,86.90
2017-06-23T05:04:29.174Z,86.40
2017-06-23T05:06:56.729Z,86.40
2017-06-23T05:09:25.125Z,86.70
2017-06-23T05:11:54.358Z,86.20
2017-06-23T05:14:21.893Z,86.10
2017-06-23T05:16:49.379Z,86.10
2017-06-23T05:19:16.902Z,86.50
2017-06-23T05:21:45.216Z,85.90
2017-06-23T05:24:13.616Z,85.80
2017-06-23T05:26:41.124Z,86.30
2017-06-23T05:29:08.646Z,86.10
2017-06-23T05:31:36.152Z,85.40
2017-06-23T05:34:03.650Z,85.40
2017-06-23T05:36:31.695Z,84.80
2017-06-23T05:38:59.175Z,84.50
2017-06-23T05:41:26.668Z,84.50
2017-06-23T05:43:54.848Z,83.80
2017-06-23T05:46:23.102Z,82.60
2017-06-23T05:48:50.624Z,82.50
2017-06-23T05:51:18.157Z,81.80
2017-06-23T05:53:45.661Z,81.60
2017-06-23T05:56:13.175Z,81.40
2017-06-23T05:58:41.511Z,80.40
2017-06-23T06:01:09.525Z,80.40
2017-06-23T06:03:37.043Z,80.20
2017-06-23T06:06:04.561Z,80.20
2017-06-23T06:08:32.067Z,79.90
2017-06-23T06:10:59.601Z,80.40
2017-06-23T06:13:27.130Z,80.00
2017-06-23T06:15:54.613Z,80.10
2017-06-23T06:18:22.150Z,79.40
2017-06-23T06:20:49.774Z,78.80
2017-06-23T06:23:18.290Z,78.30
2017-06-23T06:25:45.866Z,78.10
2017-06-23T06:28:13.414Z,78.80
2017-06-23T06:30:40.889Z,78.70
2017-06-23T06:33:08.405Z,78.00
2017-06-23T06:35:37.754Z,78.00
2017-06-23T06:38:05.264Z,77.70
2017-06-23T06:40:33.548Z,77.70
2017-06-23T06:43:02.426Z,77.30
2017-06-23T06:45:30.011Z,77.20
2017-06-23T06:47:57.565Z,77.50
2017-06-23T06:50:25.834Z,77.10
2017-06-23T06:52:54.105Z,76.40
2017-06-23T06:55:22.378Z,76.40
2017-06-23T06:57:50.685Z,76.30
2017-06-23T07:00:18.197Z,75.50
2017-06-23T07:02:45.677Z,75.40
2017-06-23T07:05:13.965Z,74.60
2017-06-23T07:07:42.255Z,74.00
2017-06-23T07:10:09.799Z,73.90
2017-06-23T07:12:37.373Z,75.90
2017-06-23T07:15:04.872Z,76.10
2017-06-23T07:17:32.363Z,75.70
2017-06-23T07:19:59.879Z,76.00
2017-06-23T07:22:27.707Z,75.70
2017-06-23T07:24:55.247Z,75.10
2017-06-23T07:27:22.820Z,75.40
2017-06-23T07:29:51.074Z,75.70
2017-06-23T07:32:18.681Z,75.70
2017-06-23T07:34:46.215Z,75.50
2017-06-23T07:37:14.484Z,76.10
2017-06-23T07:39:42.798Z,75.60
2017-06-23T07:42:10.477Z,75.30
2017-06-23T07:44:38.097Z,75.40
2017-06-23T07:47:05.657Z,75.40
2017-06-23T07:49:34.637Z,74.70
2017-06-23T07:52:02.940Z,75.80
2017-06-23T07:54:30.482Z,75.00
2017-06-23T07:56:58.758Z,74.50
2017-06-23T07:59:26.249Z,74.40
2017-06-23T08:01:54.023Z,74.90
2017-06-23T08:04:21.522Z,74.60
2017-06-23T08:06:49.032Z,75.80
2017-06-23T08:09:17.351Z,76.00
2017-06-23T08:11:44.988Z,76.10
2017-06-23T08:14:13.296Z,75.70
2017-06-23T08:16:41.025Z,75.50
2017-06-23T08:19:08.555Z,75.30
2017-06-23T08:21:36.117Z,75.20
2017-06-23T08:24:03.647Z,75.10
2017-06-23T08:26:31.177Z,75.60
2017-06-23T08:28:58.817Z,75.60
2017-06-23T08:31:26.449Z,76.50
2017-06-23T08:33:54.764Z,75.30
2017-06-23T08:36:22.334Z,75.20
2017-06-23T08:38:49.957Z,74.40
2017-06-23T08:41:17.541Z,73.10
2017-06-23T08:43:45.696Z,73.30
2017-06-23T08:46:13.280Z,72.90
2017-06-23T08:48:40.814Z,73.20
2017-06-23T08:51:08.351Z,73.20
2017-06-23T08:53:36.619Z,71.80
2017-06-23T08:56:04.116Z,71.70
2017-06-23T08:58:31.798Z,70.40
2017-06-23T09:00:59.318Z,70.00
2017-06-23T09:03:26.884Z,70.20
2017-06-23T09:05:54.388Z,69.40
2017-06-23T09:08:21.906Z,69.50
2017-06-23T09:10:49.677Z,68.50
2017-06-23T09:13:18.554Z,69.00
2017-06-23T09:15:46.153Z,69.50
2017-06-23T09:18:13.691Z,68.90
2017-06-23T09:20:41.299Z,68.70
2017-06-23T09:23:08.835Z,68.40
2017-06-23T09:25:36.441Z,68.10
2017-06-23T09:28:03.999Z,67.20
2017-06-23T09:30:31.618Z,67.80
2017-06-23T09:32:59.397Z,67.90
2017-06-23T09:35:27.042Z,68.40
2017-06-23T09:37:54.568Z,68.00
2017-06-23T09:40:22.475Z,67.10
2017-06-23T09:42:50.055Z,66.50
2017-06-23T09:45:17.569Z,67.20
2017-06-23T09:47:45.127Z,67.00
2017-06-23T09:50:12.821Z,66.50
2017-06-23T09:52:40.398Z,65.00
2017-06-23T09:55:07.913Z,65.50
2017-06-23T09:57:35.436Z,65.40
2017-06-23T10:00:02.969Z,66.10
2017-06-23T10:02:30.478Z,65.70
2017-06-23T10:04:58.073Z,66.60
2017-06-23T10:07:25.584Z,66.30
2017-06-23T10:09:53.996Z,65.30
2017-06-23T10:12:21.593Z,65.30
2017-06-23T10:14:49.102Z,64.70
2017-06-23T10:17:16.694Z,64.10
2017-06-23T10:19:44.213Z,65.10
2017-06-23T10:22:11.801Z,64.90
2017-06-23T10:24:39.323Z,65.70
2017-06-23T10:27:07.579Z,65.70
2017-06-23T10:29:35.114Z,65.70
2017-06-23T10:32:02.642Z,65.50
2017-06-23T10:34:30.164Z,66.30
2017-06-23T10:36:57.706Z,66.90
2017-06-23T10:39:25.247Z,67.30
2017-06-23T10:41:52.752Z,67.00
2017-06-23T10:44:21.040Z,66.90
2017-06-23T10:46:49.417Z,67.10
2017-06-23T10:49:17.704Z,65.10
2017-06-23T10:51:45.221Z,65.00
2017-06-23T10:54:12.757Z,63.80
2017-06-23T10:56:40.271Z,62.60
2017-06-23T10:59:08.546Z,63.60
2017-06-23T11:01:36.989Z,64.70
2017-06-23T11:04:04.552Z,64.60
2017-06-23T11:06:32.060Z,63.60
2017-06-23T11:08:59.555Z,63.20
2017-06-23T11:11:27.895Z,62.20
2017-06-23T11:13:55.391Z,61.50
2017-06-23T11:16:23.037Z,59.30
2017-06-23T11:18:50.577Z,59.40
2017-06-23T11:21:18.143Z,58.70
2017-06-23T11:23:45.662Z,58.00
2017-06-23T11:26:13.159Z,56.70
2017-06-23T11:28:40.670Z,58.60
2017-06-23T11:31:08.213Z,57.10
2017-06-23T11:33:35.717Z,58.60
2017-06-23T11:36:04.036Z,59.30
2017-06-23T11:38:31.557Z,59.30
2017-06-23T11:40:59.839Z,57.20
2017-06-23T11:43:29.038Z,57.60
2017-06-23T11:45:57.339Z,57.90
2017-06-23T11:48:24.895Z,57.80
2017-06-23T11:50:52.414Z,56.30
2017-06-23T11:53:20.125Z,56.80
2017-06-23T11:55:47.684Z,56.30
2017-06-23T11:58:15.216Z,56.10
2017-06-23T12:00:42.787Z,56.00
2017-06-23T12:03:10.699Z,55.30
2017-06-23T12:05:38.234Z,55.00
2017-06-23T12:08:05.764Z,54.30
2017-06-23T12:10:33.317Z,55.10
2017-06-23T12:13:00.849Z,55.30
2017-06-23T12:15:28.407Z,56.50
2017-06-23T12:17:55.929Z,51.50
2017-06-23T12:20:23.451Z,48.00
2017-06-23T12:22:51.037Z,49.80
2017-06-23T12:25:18.594Z,48.50
2017-06-23T12:27:46.083Z,43.80
2017-06-23T12:30:13.599Z,41.90
2017-06-23T12:32:42.098Z,41.70
2017-06-23T12:35:09.773Z,45.30
2017-06-23T12:37:37.319Z,46.50
2017-06-23T12:40:04.889Z,44.70
2017-06-23T12:42:32.396Z,43.70
2017-06-23T12:44:59.912Z,40.00
2017-06-23T12:47:27.442Z,41.40
2017-06-23T12:49:54.940Z,41.80
2017-06-23T12:52:22.448Z,38.30
2017-06-23T12:54:50.761Z,35.30
2017-06-23T12:57:18.285Z,35.20
2017-06-23T12:59:46.614Z,36.70
2017-06-23T13:02:14.138Z,36.60
2017-06-23T13:04:42.034Z,35.80
2017-06-23T13:07:09.541Z,36.30
2017-06-23T13:09:37.042Z,37.60
2017-06-23T13:12:04.549Z,38.20
2017-06-23T13:14:32.065Z,38.80
2017-06-23T13:16:59.622Z,37.00
2017-06-23T13:19:27.168Z,35.90
2017-06-23T13:21:54.654Z,34.30
2017-06-23T13:24:22.188Z,34.00
2017-06-23T13:26:49.678Z,35.50
2017-06-23T13:29:17.186Z,36.50
2017-06-23T13:31:45.457Z,37.90
2017-06-23T13:34:13.755Z,37.20
2017-06-23T13:36:41.665Z,37.00
2017-06-23T13:39:09.150Z,36.30
2017-06-23T13:41:36.653Z,34.00
2017-06-23T13:44:04.162Z,32.10
2017-06-23T13:46:31.691Z,30.00
2017-06-23T13:48:59.227Z,31.80
2017-06-23T13:51:26.740Z,30.20
2017-06-23T13:53:54.236Z,29.40
2017-06-23T13:56:21.761Z,27.10
2017-06-23T13:58:49.251Z,27.60
2017-06-23T14:01:16.742Z,29.40
2017-06-23T14:03:44.288Z,29.90
2017-06-23T14:06:11.803Z,34.10
2017-06-23T14:08:39.423Z,35.10
2017-06-23T14:11:06.945Z,33.10
2017-06-23T14:13:35.274Z,32.90
2017-06-23T14:16:02.791Z,32.80
2017-06-23T14:18:30.345Z,32.80
2017-06-23T14:20:57.915Z,35.10
2017-06-23T14:23:25.489Z,38.30
2017-06-23T14:25:53.007Z,40.20
2017-06-23T14:28:21.352Z,40.70
2017-06-23T14:30:48.966Z,40.50
2017-06-23T14:33:16.620Z,42.00
2017-06-23T14:35:44.913Z,39.70
2017-06-23T14:38:12.494Z,39.60
2017-06-23T14:40:40.035Z,36.40
2017-06-23T14:43:07.576Z,33.70
2017-06-23T14:45:35.851Z,33.60
2017-06-23T14:48:04.167Z,32.30
2017-06-23T14:50:31.671Z,32.30
2017-06-23T14:55:34.754Z,34.80
2017-06-23T14:58:02.245Z,34.70
2017-06-23T15:00:30.617Z,33.60
2017-06-23T15:02:58.896Z,32.60
2017-06-23T15:05:27.182Z,30.90
2017-06-23T15:07:55.448Z,31.40
2017-06-23T15:10:23.748Z,33.40
2017-06-23T15:12:51.230Z,33.00
2017-06-23T15:15:18.745Z,31.20
2017-06-23T15:17:47.061Z,30.90
2017-06-23T15:20:14.553Z,30.80
2017-06-23T15:22:42.029Z,31.60
2017-06-23T15:25:09.559Z,31.20
2017-06-23T15:27:37.049Z,30.30
2017-06-23T15:30:04.549Z,28.60
2017-06-23T15:32:32.071Z,28.50
2017-06-23T15:35:00.399Z,29.20
2017-06-23T15:37:28.812Z,29.10
2017-06-23T15:39:56.355Z,27.30
2017-06-23T15:42:23.850Z,27.70
2017-06-23T15:44:52.126Z,29.60
2017-06-23T15:47:19.683Z,29.50
2017-06-23T15:49:47.248Z,28.10
2017-06-23T15:52:15.562Z,29.60
2017-06-23T15:54:43.066Z,29.30
2017-06-23T15:57:10.616Z,28.50
2017-06-23T15:59:38.116Z,28.50
2017-06-23T16:02:06.383Z,30.10
2017-06-23T16:04:34.665Z,30.70
2017-06-23T16:07:02.966Z,32.10
2017-06-23T16:09:30.479Z,32.10
2017-06-23T16:11:58.023Z,34.40
2017-06-23T16:14:26.622Z,34.20
2017-06-23T16:16:54.652Z,35.00
2017-06-23T16:19:24.426Z,34.30
2017-06-23T16:21:51.952Z,33.50
2017-06-23T16:24:19.474Z,33.10
2017-06-23T16:26:46.977Z,35.70
2017-06-23T16:29:14.508Z,36.20
2017-06-23T16:31:42.070Z,35.20
2017-06-23T16:34:09.615Z,36.10
2017-06-23T16:36:37.177Z,38.70
2017-06-23T16:39:04.740Z,40.80
2017-06-23T16:41:32.273Z,41.30
2017-06-23T16:43:59.820Z,40.10
2017-06-23T16:46:28.270Z,39.50
2017-06-23T16:48:55.804Z,39.40
2017-06-23T16:51:23.306Z,40.40
2017-06-23T16:53:50.849Z,40.10
2017-06-23T16:56:18.352Z,39.70
2017-06-23T16:58:45.926Z,39.40
2017-06-23T17:01:13.700Z,40.00
2017-06-23T17:03:41.362Z,40.70
2017-06-23T17:06:08.929Z,42.20
2017-06-23T17:08:36.588Z,42.10
2017-06-23T17:11:04.163Z,42.30
2017-06-23T17:13:31.640Z,44.10
2017-06-23T17:15:59.169Z,44.20
2017-06-23T17:18:26.710Z,44.70
2017-06-23T17:20:54.255Z,44.50
2017-06-23T17:23:21.945Z,45.20
2017-06-23T17:25:49.456Z,45.30
2017-06-23T17:28:17.805Z,41.60
2017-06-23T17:30:45.444Z,41.50
2017-06-23T17:33:12.934Z,38.80
2017-06-23T17:35:40.455Z,36.50
2017-06-23T17:38:08.025Z,37.00
2017-06-23T17:40:35.551Z,37.90
2017-06-23T17:43:03.111Z,38.30
2017-06-23T17:45:31.392Z,36.50
2017-06-23T17:47:58.920Z,36.40
2017-06-23T17:50:26.452Z,36.70
2017-06-23T17:52:53.964Z,38.00
2017-06-23T17:55:22.246Z,40.20
2017-06-23T17:57:49.847Z,40.20
2017-06-23T18:00:17.369Z,41.20
2017-06-23T18:02:44.977Z,40.60
2017-06-23T18:05:12.482Z,41.30
2017-06-23T18:07:39.985Z,42.10
2017-06-23T18:10:07.502Z,43.10
2017-06-23T18:12:35.817Z,44.90
2017-06-23T18:15:03.318Z,44.90
2017-06-23T18:17:30.823Z,44.30
2017-06-23T18:19:58.374Z,46.50
2017-06-23T18:22:26.390Z,48.40
2017-06-23T18:24:53.929Z,49.80
2017-06-23T18:27:21.486Z,51.50
2017-06-23T18:29:49.022Z,52.70
2017-06-23T18:32:16.799Z,53.40
2017-06-23T18:34:44.358Z,54.30
2017-06-23T18:37:11.891Z,54.60
2017-06-23T18:39:39.408Z,55.10
2017-06-23T18:42:07.126Z,55.60
2017-06-23T18:44:34.693Z,55.90
2017-06-23T18:47:02.498Z,56.20
2017-06-23T18:49:30.383Z,56.60
2017-06-23T18:51:58.136Z,57.10
2017-06-23T18:54:25.669Z,57.10
2017-06-23T18:56:53.235Z,57.30
2017-06-23T18:59:20.765Z,59.40
2017-06-23T19:01:48.306Z,55.50
2017-06-23T19:07:59.731Z,66.40
2017-06-23T19:10:27.415Z,54.20
2017-06-23T19:12:54.943Z,57.10
2017-06-23T19:15:22.612Z,58.50
2017-06-23T19:17:50.100Z,59.00
2017-06-23T19:20:17.610Z,59.70
2017-06-23T19:22:45.147Z,60.00
2017-06-23T19:25:12.663Z,60.50
2017-06-23T19:27:40.211Z,60.80
2017-06-23T19:30:07.759Z,61.20
2017-06-23T19:32:36.067Z,61.40
2017-06-23T19:35:03.730Z,61.30
2017-06-23T19:37:31.261Z,61.50
2017-06-23T19:39:58.786Z,61.90
2017-06-23T19:42:26.296Z,62.20
2017-06-23T19:44:53.810Z,62.40
2017-06-23T19:47:21.306Z,62.80
2017-06-23T19:49:48.845Z,62.60
2017-06-23T19:52:16.344Z,62.90
2017-06-23T19:54:43.877Z,63.40
2017-06-23T19:57:11.402Z,63.20
2017-06-23T19:59:38.936Z,63.20
2017-06-23T20:02:06.468Z,63.90
2017-06-23T20:04:33.992Z,63.70
2017-06-23T20:07:01.521Z,64.10
2017-06-23T20:09:29.063Z,64.30
2017-06-23T20:11:56.664Z,66.00
2017-06-23T20:14:24.182Z,67.30
2017-06-23T20:16:51.729Z,68.40
2017-06-23T20:19:19.260Z,68.80
2017-06-23T20:21:48.791Z,69.10
2017-06-23T20:24:16.312Z,69.30
2017-06-23T20:26:44.602Z,69.70
2017-06-23T20:29:12.187Z,69.60
2017-06-23T20:31:39.710Z,69.80
2017-06-23T20:34:08.011Z,70.70
2017-06-23T20:36:35.544Z,70.50
2017-06-23T20:39:03.067Z,70.90
2017-06-23T20:41:30.585Z,71.10
2017-06-23T20:43:58.931Z,71.40
2017-06-23T20:46:26.443Z,71.30
2017-06-23T20:48:53.958Z,71.20
2017-06-23T20:51:21.488Z,71.00
2017-06-23T20:53:48.996Z,70.90
2017-06-23T20:56:17.338Z,70.90
2017-06-23T20:58:44.887Z,70.70
2017-06-23T21:01:12.430Z,70.90
2017-06-23T21:03:40.990Z,71.00
2017-06-23T21:06:08.516Z,70.90
2017-06-23T21:08:36.028Z,70.70
2017-06-23T21:11:03.536Z,70.70
2017-06-23T21:13:31.043Z,70.70
2017-06-23T21:15:58.586Z,71.10
2017-06-23T21:18:26.125Z,71.80
2017-06-23T21:20:53.633Z,72.30
2017-06-23T21:23:21.184Z,72.70
2017-06-23T21:25:48.755Z,73.60
2017-06-23T21:28:16.316Z,72.90
2017-06-23T21:30:43.881Z,72.90
2017-06-23T21:33:11.405Z,72.70
2017-06-23T21:35:38.935Z,72.80
2017-06-23T21:38:06.496Z,72.70
2017-06-23T21:40:45.846Z,72.30
2017-06-23T21:43:13.388Z,72.00
2017-06-23T21:45:41.904Z,72.00
2017-06-23T21:48:09.493Z,72.00
2017-06-23T21:50:36.987Z,72.00
2017-06-23T21:53:04.536Z,71.60
2017-06-23T21:55:32.037Z,71.90
2017-06-23T21:57:59.567Z,72.10
2017-06-23T22:00:27.059Z,71.90
2017-06-23T22:02:54.724Z,72.20
2017-06-23T22:05:22.231Z,72.60
2017-06-23T22:07:49.738Z,72.60
2017-06-23T22:10:17.288Z,73.50
2017-06-23T22:12:44.809Z,72.80
2017-06-23T22:15:12.322Z,72.70
2017-06-23T22:17:39.844Z,72.70
2017-06-23T22:20:07.364Z,72.70
2017-06-23T22:22:34.871Z,72.70
2017-06-23T22:25:03.137Z,73.40
2017-06-23T22:27:30.684Z,72.60
2017-06-23T22:29:58.183Z,72.70
2017-06-23T22:32:25.726Z,72.70
2017-06-23T22:34:54.019Z,72.80
2017-06-23T22:37:22.305Z,72.80
2017-06-23T22:39:49.791Z,72.70
2017-06-23T22:42:17.347Z,72.70
2017-06-23T22:44:45.871Z,72.70
2017-06-23T22:47:13.394Z,72.80
2017-06-23T22:49:41.039Z,72.90
2017-06-23T22:52:08.589Z,73.20
2017-06-23T22:54:36.097Z,73.80
2017-06-23T22:57:03.636Z,74.20
2017-06-23T22:59:31.136Z,74.50
2017-06-23T23:01:58.646Z,74.50
2017-06-23T23:04:26.166Z,74.40
2017-06-23T23:06:54.443Z,74.70
2017-06-23T23:09:22.702Z,75.40
2017-06-23T23:11:50.365Z,75.30
2017-06-23T23:14:17.854Z,75.30
2017-06-23T23:16:45.339Z,75.40
2017-06-23T23:19:12.868Z,75.30
2017-06-23T23:21:40.372Z,75.00
2017-06-23T23:24:07.863Z,74.70
2017-06-23T23:26:36.195Z,75.50
2017-06-23T23:29:03.693Z,75.20
2017-06-23T23:31:31.213Z,75.10
2017-06-23T23:33:58.735Z,75.30
2017-06-23T23:36:26.222Z,75.20
2017-06-23T23:38:53.722Z,75.20
2017-06-23T23:41:21.258Z,75.40
2017-06-23T23:43:49.036Z,75.20
2017-06-23T23:46:16.542Z,75.00
2017-06-23T23:48:44.068Z,75.00
2017-06-23T23:51:11.575Z,74.80
2017-06-23T23:53:39.075Z,75.00
2017-06-23T23:56:06.767Z,75.20
2017-06-23T23:58:35.038Z,75.10
